T Ville, Kentucky
Current Conditions -  °F | °C
As of 5:15 AM on Thursday 23 Oct 2014 (Local Time) from KGLW Reporting Station
Haze Haze  
Wind Chill: 37°   Ceiling: Unl
Heat Index: 37°   Visibility: 3mi
Dew Point: 37°   Wind: 0mph
Humidity: 100%   Direction: NA
Pressure: 30.24"   Gusts: NA
Location:  36.7279°N, 85.6843°W
Report Text: KGLW 231015Z AUTO 00000KT 3SM BR CLR 03/03 A3024 RMK AO2 T00250025
Loading
Personal Weather Stations






























Interactive Weather Map
Tropical Storm Tracking
New forecast layout! Learn more

10-Day Weather Forecast

Advertisements
Track Severe Weather on mobile